createdAt,value
2023-02-19T00:00:14.835Z,10.20
2023-02-19T00:02:50.882Z,10.20
2023-02-19T00:05:18.088Z,10.20
2023-02-19T00:07:45.000Z,10.20
2023-02-19T00:10:11.825Z,10.20
2023-02-19T00:12:39.129Z,10.20
2023-02-19T00:15:06.407Z,10.20
2023-02-19T00:17:37.339Z,10.20
2023-02-19T00:20:05.221Z,10.20
2023-02-19T00:22:32.087Z,10.20
2023-02-19T00:24:59.352Z,10.10
2023-02-19T00:27:26.590Z,10.20
2023-02-19T00:29:54.182Z,10.20
2023-02-19T00:32:21.026Z,10.20
2023-02-19T00:34:49.354Z,10.20
2023-02-19T00:37:16.249Z,10.20
2023-02-19T00:39:43.164Z,10.10
2023-02-19T00:42:10.516Z,10.20
2023-02-19T00:44:45.637Z,10.10
2023-02-19T00:47:12.543Z,10.10
2023-02-19T00:49:39.465Z,10.10
2023-02-19T00:52:08.137Z,10.10
2023-02-19T00:54:35.340Z,10.10
2023-02-19T00:57:02.350Z,10.10
2023-02-19T00:59:29.577Z,10.10
2023-02-19T01:01:56.544Z,10.10
2023-02-19T01:04:26.243Z,10.20
2023-02-19T01:06:53.655Z,10.10
2023-02-19T01:09:21.885Z,10.10
2023-02-19T01:11:51.644Z,10.10
2023-02-19T01:14:21.232Z,10.10
2023-02-19T01:16:48.356Z,10.10
2023-02-19T01:19:15.268Z,10.10
2023-02-19T01:21:42.509Z,10.10
2023-02-19T01:24:09.723Z,10.20
2023-02-19T01:26:44.852Z,10.10
2023-02-19T01:29:11.782Z,10.20
2023-02-19T01:31:42.444Z,10.20
2023-02-19T01:34:11.068Z,10.10
2023-02-19T01:36:38.629Z,10.20
2023-02-19T01:39:07.300Z,10.10
2023-02-19T01:41:39.518Z,10.10
2023-02-19T01:44:49.645Z,10.10
2023-02-19T01:47:19.768Z,10.10
2023-02-19T01:49:50.071Z,10.10
2023-02-19T01:52:21.534Z,10.10
2023-02-19T01:54:50.035Z,10.10
2023-02-19T01:57:21.227Z,10.10
2023-02-19T01:59:53.324Z,10.10
2023-02-19T02:02:22.149Z,10.20
2023-02-19T02:04:49.066Z,10.10
2023-02-19T02:07:35.714Z,10.10
2023-02-19T02:10:20.974Z,10.20
2023-02-19T02:13:17.240Z,10.10
2023-02-19T02:15:59.739Z,10.10
2023-02-19T02:19:41.729Z,10.10
2023-02-19T02:22:29.131Z,10.10
2023-02-19T02:25:38.484Z,10.10
2023-02-19T02:28:22.603Z,10.10
2023-02-19T02:30:53.114Z,10.00
2023-02-19T02:33:28.971Z,10.00
2023-02-19T02:35:59.318Z,10.00
2023-02-19T02:38:31.234Z,10.00
2023-02-19T02:41:01.534Z,10.10
2023-02-19T02:43:28.515Z,10.00
2023-02-19T02:45:56.909Z,10.10
2023-02-19T02:48:28.799Z,10.10
2023-02-19T02:51:00.109Z,10.10
2023-02-19T02:53:51.730Z,10.10
2023-02-19T02:56:19.918Z,10.10
2023-02-19T02:58:49.548Z,10.00
2023-02-19T03:01:44.586Z,10.00
2023-02-19T03:04:15.850Z,10.00
2023-02-19T03:06:47.695Z,10.00
2023-02-19T03:09:18.958Z,10.00
2023-02-19T03:12:29.008Z,10.00
2023-02-19T03:15:28.896Z,10.00
2023-02-19T03:18:22.177Z,10.00
2023-02-19T03:20:52.813Z,10.00
2023-02-19T03:23:21.961Z,10.00
2023-02-19T03:26:04.337Z,10.00
2023-02-19T03:28:53.849Z,10.00
2023-02-19T03:31:26.567Z,10.00
2023-02-19T03:34:27.049Z,9.90
2023-02-19T03:37:04.423Z,9.90
2023-02-19T03:39:32.021Z,9.90
2023-02-19T03:42:05.019Z,9.90
2023-02-19T03:44:41.039Z,9.90
2023-02-19T03:47:19.602Z,9.90
2023-02-19T03:49:53.772Z,9.90
2023-02-19T03:52:28.575Z,9.90
2023-02-19T03:55:02.016Z,9.90
2023-02-19T03:57:38.104Z,9.90
2023-02-19T04:00:12.323Z,9.90
2023-02-19T04:02:41.597Z,9.90
2023-02-19T04:05:14.385Z,9.90
2023-02-19T04:07:46.514Z,9.90
2023-02-19T04:10:15.704Z,9.90
2023-02-19T04:12:48.384Z,9.90
2023-02-19T04:15:22.108Z,9.90
2023-02-19T04:17:54.645Z,9.90
2023-02-19T04:20:24.759Z,9.90
2023-02-19T04:22:54.887Z,9.90
2023-02-19T04:25:28.905Z,9.90
2023-02-19T04:27:56.012Z,9.90
2023-02-19T04:30:23.248Z,9.90
2023-02-19T04:32:50.188Z,9.90
2023-02-19T04:35:17.339Z,9.90
2023-02-19T04:37:45.813Z,9.90
2023-02-19T04:40:12.840Z,9.90
2023-02-19T04:42:39.987Z,9.90
2023-02-19T04:45:07.780Z,9.80
2023-02-19T04:47:37.440Z,9.80
2023-02-19T04:50:05.500Z,9.80
2023-02-19T04:52:33.718Z,9.80
2023-02-19T04:55:02.106Z,9.80
2023-02-19T04:57:28.967Z,9.70
2023-02-19T04:59:55.897Z,9.70
2023-02-19T05:02:23.048Z,9.70
2023-02-19T05:04:49.958Z,9.70
2023-02-19T05:07:21.337Z,9.70
2023-02-19T05:09:48.470Z,9.70
2023-02-19T05:12:16.695Z,9.70
2023-02-19T05:14:43.549Z,9.70
2023-02-19T05:17:10.562Z,9.70
2023-02-19T05:19:37.453Z,9.70
2023-02-19T05:22:04.346Z,9.70
2023-02-19T05:24:31.800Z,9.70
2023-02-19T05:26:58.752Z,9.70
2023-02-19T05:29:27.322Z,9.70
2023-02-19T05:31:54.577Z,9.70
2023-02-19T05:34:21.466Z,9.70
2023-02-19T05:36:48.489Z,9.70
2023-02-19T05:39:15.388Z,9.70
2023-02-19T05:41:42.725Z,9.70
2023-02-19T05:44:17.253Z,9.70
2023-02-19T05:46:45.936Z,9.70
2023-02-19T05:49:13.187Z,9.60
2023-02-19T05:51:40.157Z,9.70
2023-02-19T05:54:09.715Z,9.70
2023-02-19T05:56:38.535Z,9.70
2023-02-19T05:59:09.017Z,9.70
2023-02-19T06:01:36.547Z,9.70
2023-02-19T06:04:05.421Z,9.60
2023-02-19T06:06:35.151Z,9.60
2023-02-19T06:09:02.205Z,9.60
2023-02-19T06:11:29.969Z,9.60
2023-02-19T06:13:57.388Z,9.60
2023-02-19T06:16:24.417Z,9.60
2023-02-19T06:18:51.700Z,9.50
2023-02-19T06:21:20.500Z,9.60
2023-02-19T06:23:47.867Z,9.50
2023-02-19T06:26:18.012Z,9.50
2023-02-19T06:28:46.346Z,9.60
2023-02-19T06:31:14.159Z,9.50
2023-02-19T06:33:42.269Z,9.50
2023-02-19T06:36:12.733Z,9.50
2023-02-19T06:38:41.423Z,9.50
2023-02-19T06:41:11.438Z,9.50
2023-02-19T06:43:38.486Z,9.50
2023-02-19T06:46:06.988Z,9.40
2023-02-19T06:48:35.540Z,9.40
2023-02-19T06:51:03.187Z,9.40
2023-02-19T06:53:30.356Z,9.40
2023-02-19T06:56:00.541Z,9.40
2023-02-19T06:58:28.468Z,9.40
2023-02-19T07:00:55.550Z,9.40
2023-02-19T07:03:22.953Z,9.30
2023-02-19T07:05:49.906Z,9.40
2023-02-19T07:08:19.599Z,9.40
2023-02-19T07:10:54.427Z,9.40
2023-02-19T07:13:24.906Z,9.40
2023-02-19T07:15:52.280Z,9.30
2023-02-19T07:18:19.454Z,9.40
2023-02-19T07:20:46.361Z,9.40
2023-02-19T07:23:13.428Z,9.40
2023-02-19T07:25:40.868Z,9.40
2023-02-19T07:28:08.016Z,9.40
2023-02-19T07:30:36.266Z,9.40
2023-02-19T07:33:03.178Z,9.40
2023-02-19T07:35:30.296Z,9.40
2023-02-19T07:37:57.293Z,9.50
2023-02-19T07:40:24.299Z,9.40
2023-02-19T07:42:51.181Z,9.50
2023-02-19T07:45:18.871Z,9.50
2023-02-19T07:47:47.198Z,9.50
2023-02-19T07:50:14.551Z,9.50
2023-02-19T07:52:41.452Z,9.40
2023-02-19T07:55:08.852Z,9.40
2023-02-19T07:57:35.732Z,9.40
2023-02-19T08:00:03.641Z,9.40
2023-02-19T08:02:49.434Z,9.40
2023-02-19T08:05:17.886Z,9.40
2023-02-19T08:07:45.291Z,9.40
2023-02-19T08:10:30.664Z,9.40
2023-02-19T08:13:17.935Z,9.40
2023-02-19T08:15:45.818Z,9.40
2023-02-19T08:18:16.310Z,9.40
2023-02-19T08:20:45.415Z,9.40
2023-02-19T08:23:12.883Z,9.40
2023-02-19T08:25:41.404Z,9.40
2023-02-19T08:28:09.962Z,9.40
2023-02-19T08:30:38.952Z,9.40
2023-02-19T08:33:07.774Z,9.40
2023-02-19T08:35:36.506Z,9.40
2023-02-19T08:38:06.579Z,9.40
2023-02-19T08:40:36.921Z,9.40
2023-02-19T08:43:04.724Z,9.40
2023-02-19T08:45:31.786Z,9.40
2023-02-19T08:47:59.958Z,9.40
2023-02-19T08:50:28.750Z,9.50
2023-02-19T08:52:55.712Z,9.50
2023-02-19T08:55:24.494Z,9.50
2023-02-19T08:57:52.150Z,9.50
2023-02-19T09:00:19.599Z,9.50
2023-02-19T09:02:46.678Z,9.50
2023-02-19T09:05:13.664Z,9.60
2023-02-19T09:07:41.706Z,9.50
2023-02-19T09:10:09.920Z,9.60
2023-02-19T09:12:38.376Z,9.60
2023-02-19T09:15:06.466Z,9.60
2023-02-19T09:17:33.323Z,9.60
2023-02-19T09:20:00.674Z,9.60
2023-02-19T09:22:27.586Z,9.70
2023-02-19T09:24:54.746Z,9.70
2023-02-19T09:27:21.952Z,9.80
2023-02-19T09:29:54.926Z,9.80
2023-02-19T09:32:21.994Z,9.80
2023-02-19T09:34:49.919Z,9.80
2023-02-19T09:37:16.866Z,9.80
2023-02-19T09:39:43.967Z,9.70
2023-02-19T09:42:15.679Z,9.80
2023-02-19T09:44:48.163Z,9.80
2023-02-19T09:47:19.485Z,9.80
2023-02-19T09:49:52.084Z,9.90
2023-02-19T09:52:28.300Z,9.90
2023-02-19T09:55:01.182Z,10.00
2023-02-19T09:57:32.383Z,10.10
2023-02-19T10:00:06.062Z,10.10
2023-02-19T10:02:34.539Z,10.10
2023-02-19T10:05:02.917Z,10.10
2023-02-19T10:07:38.536Z,10.10
2023-02-19T10:10:24.326Z,10.10
2023-02-19T10:12:55.815Z,10.20
2023-02-19T10:15:29.438Z,10.10
2023-02-19T10:17:58.215Z,10.10
2023-02-19T10:20:28.027Z,10.20
2023-02-19T10:23:00.345Z,10.10
2023-02-19T10:25:27.708Z,10.10
2023-02-19T10:27:54.762Z,10.20
2023-02-19T10:30:24.988Z,10.20
2023-02-19T10:33:08.501Z,10.20
2023-02-19T10:35:37.343Z,10.20
2023-02-19T10:38:08.508Z,10.20
2023-02-19T10:40:35.397Z,10.20
2023-02-19T10:43:04.533Z,10.20
2023-02-19T10:45:38.939Z,10.20
2023-02-19T10:48:24.632Z,10.30
2023-02-19T10:50:57.313Z,10.30
2023-02-19T10:53:35.191Z,10.30
2023-02-19T10:56:07.809Z,10.50
2023-02-19T10:58:40.682Z,10.80
2023-02-19T11:01:18.666Z,10.90
2023-02-19T11:03:49.978Z,11.10
2023-02-19T11:06:20.608Z,11.00
2023-02-19T11:08:52.292Z,11.00
2023-02-19T11:11:37.932Z,10.90
2023-02-19T11:14:15.390Z,10.80
2023-02-19T11:16:45.131Z,10.70
2023-02-19T11:19:33.592Z,10.70
2023-02-19T11:22:02.132Z,10.50
2023-02-19T11:24:33.912Z,10.50
2023-02-19T11:27:03.720Z,10.40
2023-02-19T11:29:37.554Z,10.30
2023-02-19T11:32:29.810Z,10.20
2023-02-19T11:35:24.210Z,10.30
2023-02-19T11:37:56.903Z,10.30
2023-02-19T11:40:35.717Z,10.20
2023-02-19T11:43:08.799Z,10.30
2023-02-19T11:45:42.450Z,10.20
2023-02-19T11:48:24.899Z,10.30
2023-02-19T11:51:17.106Z,10.20
2023-02-19T11:53:49.832Z,10.20
2023-02-19T11:56:24.090Z,10.20
2023-02-19T11:59:00.746Z,10.20
2023-02-19T12:01:49.976Z,10.20
2023-02-19T12:04:58.565Z,10.20
2023-02-19T12:07:59.199Z,10.20
2023-02-19T12:10:32.438Z,10.10
2023-02-19T12:13:07.829Z,10.20
2023-02-19T12:15:59.965Z,10.10
2023-02-19T12:18:57.550Z,10.10
2023-02-19T12:21:40.158Z,10.00
2023-02-19T12:24:33.066Z,9.90
2023-02-19T12:27:12.530Z,9.90
2023-02-19T12:29:56.242Z,9.90
2023-02-19T12:32:58.715Z,9.90
2023-02-19T12:36:00.497Z,10.00
2023-02-19T12:38:35.400Z,10.00
2023-02-19T12:41:33.131Z,10.00
2023-02-19T12:44:04.349Z,10.10
2023-02-19T12:46:37.304Z,10.10
2023-02-19T12:49:13.965Z,10.20
2023-02-19T12:51:46.695Z,10.30
2023-02-19T12:54:19.720Z,10.30
2023-02-19T12:56:54.455Z,10.30
2023-02-19T12:59:26.599Z,10.30
2023-02-19T13:02:00.011Z,10.30
2023-02-19T13:04:36.296Z,10.30
2023-02-19T13:07:09.028Z,10.30
2023-02-19T13:09:41.331Z,10.30
2023-02-19T13:12:14.829Z,10.30
2023-02-19T13:14:46.480Z,10.20
2023-02-19T13:17:24.015Z,10.20
2023-02-19T13:19:56.599Z,10.20
2023-02-19T13:22:50.746Z,10.20
2023-02-19T13:25:19.512Z,10.20
2023-02-19T13:28:03.014Z,10.10
2023-02-19T13:30:57.099Z,10.10
2023-02-19T13:33:37.294Z,10.00
2023-02-19T13:36:14.664Z,9.90
2023-02-19T13:38:45.076Z,9.90
2023-02-19T13:41:27.500Z,9.80
2023-02-19T13:44:04.536Z,9.70
2023-02-19T13:46:38.480Z,9.70
2023-02-19T13:49:43.654Z,9.60
2023-02-19T13:52:42.257Z,9.50
2023-02-19T13:55:52.358Z,9.50
2023-02-19T13:58:53.815Z,9.50
2023-02-19T14:02:02.890Z,9.40
2023-02-19T14:04:52.657Z,9.40
2023-02-19T14:08:02.028Z,9.30
2023-02-19T14:11:02.630Z,9.30
2023-02-19T14:14:11.327Z,9.20
2023-02-19T14:17:04.930Z,9.30
2023-02-19T14:19:51.184Z,9.20
2023-02-19T14:23:03.700Z,9.20
2023-02-19T14:25:39.145Z,9.20
2023-02-19T14:28:25.460Z,9.20
2023-02-19T14:30:54.389Z,9.20
2023-02-19T14:33:28.290Z,9.10
2023-02-19T14:35:59.437Z,9.10
2023-02-19T14:38:28.275Z,9.10
2023-02-19T14:40:56.737Z,9.20
2023-02-19T14:43:25.917Z,9.10
2023-02-19T14:45:58.123Z,9.10
2023-02-19T14:48:31.123Z,9.10
2023-02-19T14:51:19.232Z,9.10
2023-02-19T14:53:46.817Z,9.00
2023-02-19T14:56:28.794Z,9.00
2023-02-19T14:59:21.393Z,9.00
2023-02-19T15:01:58.522Z,9.00
2023-02-19T15:04:29.884Z,9.00
2023-02-19T15:07:02.976Z,9.00
2023-02-19T15:09:36.469Z,9.00
2023-02-19T15:12:04.120Z,9.00
2023-02-19T15:14:33.248Z,8.90
2023-02-19T15:17:02.739Z,8.90
2023-02-19T15:19:36.570Z,8.90
2023-02-19T15:22:04.694Z,8.90
2023-02-19T15:24:32.005Z,8.90
2023-02-19T15:26:59.120Z,8.90
2023-02-19T15:29:27.512Z,8.80
2023-02-19T15:31:56.375Z,8.80
2023-02-19T15:34:25.611Z,8.80
2023-02-19T15:37:00.936Z,8.70
2023-02-19T15:39:34.247Z,8.70
2023-02-19T15:42:03.601Z,8.70
2023-02-19T15:44:42.224Z,8.70
2023-02-19T15:47:22.597Z,8.70
2023-02-19T15:49:57.085Z,8.60
2023-02-19T15:52:33.650Z,8.60
2023-02-19T15:55:13.463Z,8.60
2023-02-19T15:57:46.420Z,8.60
2023-02-19T16:00:19.818Z,8.60
2023-02-19T16:02:47.070Z,8.60
2023-02-19T16:05:22.963Z,8.60
2023-02-19T16:08:16.542Z,8.60
2023-02-19T16:10:55.126Z,8.60
2023-02-19T16:13:25.035Z,8.50
2023-02-19T16:16:15.317Z,8.50
2023-02-19T16:18:45.524Z,8.50
2023-02-19T16:21:15.834Z,8.40
2023-02-19T16:23:46.960Z,8.50
2023-02-19T16:26:16.812Z,8.40
2023-02-19T16:28:47.176Z,8.40
2023-02-19T16:31:14.771Z,8.40
2023-02-19T16:33:43.179Z,8.40
2023-02-19T16:36:17.829Z,8.40
2023-02-19T16:39:03.515Z,8.30
2023-02-19T16:41:30.837Z,8.30
2023-02-19T16:44:06.454Z,8.20
2023-02-19T16:46:33.675Z,8.20
2023-02-19T16:49:02.007Z,8.20
2023-02-19T16:51:28.991Z,8.20
2023-02-19T16:53:55.944Z,8.10
2023-02-19T16:56:25.306Z,8.10
2023-02-19T16:58:52.703Z,8.10
2023-02-19T17:01:19.724Z,8.00
2023-02-19T17:03:47.769Z,8.00
2023-02-19T17:06:15.576Z,8.00
2023-02-19T17:08:43.597Z,8.00
2023-02-19T17:11:12.695Z,8.00
2023-02-19T17:13:45.832Z,8.00
2023-02-19T17:16:18.292Z,8.00
2023-02-19T17:18:49.130Z,7.90
2023-02-19T17:21:18.063Z,8.00
2023-02-19T17:23:48.604Z,8.00
2023-02-19T17:26:16.660Z,8.00
2023-02-19T17:28:45.229Z,7.90
2023-02-19T17:31:14.528Z,7.90
2023-02-19T17:33:54.803Z,7.90
2023-02-19T17:36:24.162Z,7.90
2023-02-19T17:38:51.418Z,7.90
2023-02-19T17:41:18.799Z,7.90
2023-02-19T17:43:47.561Z,7.90
2023-02-19T17:46:15.599Z,7.90
2023-02-19T17:48:45.495Z,7.90
2023-02-19T17:51:13.913Z,7.80
2023-02-19T17:53:42.045Z,7.80
2023-02-19T17:56:09.178Z,7.70
2023-02-19T17:58:36.239Z,7.70
2023-02-19T18:01:04.997Z,7.60
2023-02-19T18:03:32.207Z,7.60
2023-02-19T18:05:59.149Z,7.60
2023-02-19T18:08:26.457Z,7.50
2023-02-19T18:10:53.761Z,7.50
2023-02-19T18:13:20.662Z,7.40
2023-02-19T18:15:53.612Z,7.40
2023-02-19T18:18:23.333Z,7.30
2023-02-19T18:20:50.658Z,7.30
2023-02-19T18:23:17.601Z,7.30
2023-02-19T18:25:47.757Z,7.30
2023-02-19T18:28:15.285Z,7.20
2023-02-19T18:30:42.433Z,7.20
2023-02-19T18:33:13.791Z,7.20
2023-02-19T18:35:42.044Z,7.20
2023-02-19T18:38:09.183Z,7.10
2023-02-19T18:40:36.111Z,7.10
2023-02-19T18:43:05.801Z,7.10
2023-02-19T18:45:36.035Z,7.00
2023-02-19T18:48:04.474Z,6.90
2023-02-19T18:50:31.528Z,6.90
2023-02-19T18:52:59.793Z,6.90
2023-02-19T18:55:26.782Z,6.90
2023-02-19T18:57:53.612Z,6.90
2023-02-19T19:00:25.428Z,6.90
2023-02-19T19:02:56.298Z,6.90
2023-02-19T19:05:23.469Z,6.80
2023-02-19T19:07:51.506Z,6.70
2023-02-19T19:10:21.177Z,6.70
2023-02-19T19:12:48.291Z,6.70
2023-02-19T19:15:18.189Z,6.70
2023-02-19T19:17:45.806Z,6.70
2023-02-19T19:20:13.949Z,6.60
2023-02-19T19:22:41.255Z,6.60
2023-02-19T19:25:09.026Z,6.60
2023-02-19T19:27:37.413Z,6.60
2023-02-19T19:30:05.604Z,6.60
2023-02-19T19:32:32.616Z,6.60
2023-02-19T19:34:59.853Z,6.50
2023-02-19T19:37:28.859Z,6.50
2023-02-19T19:39:59.833Z,6.50
2023-02-19T19:42:26.658Z,6.50
2023-02-19T19:44:55.897Z,6.50
2023-02-19T19:47:23.217Z,6.50
2023-02-19T19:49:50.354Z,6.50
2023-02-19T19:52:18.169Z,6.40
2023-02-19T19:54:45.280Z,6.40
2023-02-19T19:57:13.238Z,6.40
2023-02-19T19:59:40.186Z,6.40
2023-02-19T20:02:12.092Z,6.40
2023-02-19T20:04:39.049Z,6.40
2023-02-19T20:07:06.326Z,6.40
2023-02-19T20:09:33.201Z,6.40
2023-02-19T20:12:00.537Z,6.30
2023-02-19T20:14:27.464Z,6.20
2023-02-19T20:17:03.100Z,6.20
2023-02-19T20:19:31.946Z,6.20
2023-02-19T20:21:59.119Z,6.20
2023-02-19T20:24:28.835Z,6.10
2023-02-19T20:27:02.189Z,6.10
2023-02-19T20:29:31.378Z,6.10
2023-02-19T20:32:03.632Z,6.10
2023-02-19T20:34:34.589Z,6.10
2023-02-19T20:37:03.989Z,6.00
2023-02-19T20:39:31.861Z,6.00
2023-02-19T20:41:59.681Z,6.00
2023-02-19T20:44:28.675Z,5.90
2023-02-19T20:46:57.435Z,5.90
2023-02-19T20:49:27.316Z,5.90
2023-02-19T20:52:00.056Z,5.90
2023-02-19T20:54:28.793Z,5.90
2023-02-19T20:56:57.783Z,5.90
2023-02-19T20:59:30.778Z,5.90
2023-02-19T21:01:58.471Z,5.80
2023-02-19T21:04:25.950Z,5.80
2023-02-19T21:06:52.857Z,5.80
2023-02-19T21:09:22.334Z,5.80
2023-02-19T21:11:49.464Z,5.80
2023-02-19T21:14:17.243Z,5.80
2023-02-19T21:16:44.658Z,5.80
2023-02-19T21:19:11.619Z,5.70
2023-02-19T21:21:40.675Z,5.70
2023-02-19T21:24:11.207Z,5.70
2023-02-19T21:26:41.245Z,5.70
2023-02-19T21:29:12.452Z,5.70
2023-02-19T21:31:41.365Z,5.60
2023-02-19T21:34:10.696Z,5.70
2023-02-19T21:36:37.844Z,5.70
2023-02-19T21:39:06.533Z,5.60
2023-02-19T21:41:33.441Z,5.70
2023-02-19T21:44:01.947Z,5.60
2023-02-19T21:46:28.995Z,5.60
2023-02-19T21:48:57.081Z,5.60
2023-02-19T21:51:33.531Z,5.60
2023-02-19T21:54:02.067Z,5.60
2023-02-19T21:56:30.630Z,5.60
2023-02-19T21:58:58.228Z,5.60
2023-02-19T22:01:28.336Z,5.60
2023-02-19T22:03:55.348Z,5.60
2023-02-19T22:06:26.923Z,5.60
2023-02-19T22:08:55.202Z,5.60
2023-02-19T22:11:22.042Z,5.60
2023-02-19T22:13:49.732Z,5.60
2023-02-19T22:16:17.383Z,5.60
2023-02-19T22:18:49.517Z,5.60
2023-02-19T22:21:16.882Z,5.60
2023-02-19T22:23:45.475Z,5.60
2023-02-19T22:26:18.833Z,5.60
2023-02-19T22:28:47.645Z,5.60
2023-02-19T22:31:15.468Z,5.60
2023-02-19T22:33:44.154Z,5.60
2023-02-19T22:36:17.399Z,5.60
2023-02-19T22:38:44.728Z,5.50
2023-02-19T22:41:11.822Z,5.60
2023-02-19T22:43:39.126Z,5.60
2023-02-19T22:46:12.503Z,5.50
2023-02-19T22:48:39.852Z,5.50
2023-02-19T22:51:12.857Z,5.50
2023-02-19T22:53:45.651Z,5.50
2023-02-19T22:56:13.289Z,5.50
2023-02-19T22:58:40.978Z,5.50
2023-02-19T23:01:08.705Z,5.50
2023-02-19T23:03:44.518Z,5.50
2023-02-19T23:06:12.049Z,5.50
2023-02-19T23:08:39.754Z,5.60
2023-02-19T23:11:08.847Z,5.60
2023-02-19T23:13:35.784Z,5.70
2023-02-19T23:16:04.677Z,5.60
2023-02-19T23:18:31.522Z,5.70
2023-02-19T23:21:02.241Z,5.70
2023-02-19T23:23:29.923Z,5.70
2023-02-19T23:25:56.812Z,5.80
2023-02-19T23:28:25.067Z,5.80
2023-02-19T23:30:52.155Z,5.90
2023-02-19T23:33:19.252Z,5.90
2023-02-19T23:35:46.116Z,5.90
2023-02-19T23:38:12.995Z,5.90
2023-02-19T23:40:40.173Z,5.90
2023-02-19T23:43:07.006Z,6.00
2023-02-19T23:45:38.335Z,6.00
2023-02-19T23:48:05.794Z,6.00
2023-02-19T23:50:32.668Z,6.00
2023-02-19T23:53:00.226Z,6.10
2023-02-19T23:55:27.073Z,6.10
2023-02-19T23:57:54.304Z,6.10
